Weather at Joaquín de Agüero Airport

Public forecast

Using degrees Celsius for public forecast. Weather courtesy of forecast.io.

Closest aviation weather report (METAR) to Joaquín de Agüero Airport

Closest report is Ignacio Agramonte International Airport, 46.5 nm (86.1 km) W.

2024/07/14 16:50 (retrieved 47 minutes ago)

MUCM 141650Z 04012KT 010V080 9000 SCT020 33/23 Q1017

Closest aviation forecast (TAF) to Joaquín de Agüero Airport

Closest forecast is Ignacio Agramonte International Airport, 46.5 nm (86.1 km) W.

2024/07/14 12:07 (retrieved 6 hours ago)

TAF MUCM 141100Z 1412/1512 06008KT 9000 SCT020 BECMG 1417/1418 VRB04KT BKN020 TEMPO 1420/1424 VRB10KT 3000 TSRA SCT018CB